createdAt,value
2023-03-14T00:00:51.482Z,93826.31
2023-03-14T00:03:17.884Z,93826.94
2023-03-14T00:05:44.253Z,93815.88
2023-03-14T00:08:10.700Z,93801.19
2023-03-14T00:10:37.709Z,93751.44
2023-03-14T00:13:04.095Z,93726.28
2023-03-14T00:15:30.631Z,93705.34
2023-03-14T00:17:56.980Z,93677.53
2023-03-14T00:20:23.336Z,93646.09
2023-03-14T00:22:49.668Z,93628.06
2023-03-14T00:25:16.034Z,93581.81
2023-03-14T00:27:42.624Z,93571.97
2023-03-14T00:30:09.576Z,93537.59
2023-03-14T00:32:36.278Z,93542.41
2023-03-14T00:35:03.968Z,93547.09
2023-03-14T00:37:30.505Z,93556.97
2023-03-14T00:39:56.875Z,93587.81
2023-03-14T00:42:23.242Z,93573.84
2023-03-14T00:44:49.785Z,93600.31
2023-03-14T00:47:16.130Z,93644.28
2023-03-14T00:49:44.342Z,93664.31
2023-03-14T00:52:10.860Z,93725.69
2023-03-14T00:54:37.235Z,93785.38
2023-03-14T00:57:03.696Z,93818.97
2023-03-14T00:59:30.024Z,93871.34
2023-03-14T01:01:56.677Z,93910.28
2023-03-14T01:04:23.343Z,93925.78
2023-03-14T01:06:49.717Z,93946.75
2023-03-14T01:09:18.855Z,93982.59
2023-03-14T01:11:47.408Z,93997.53
2023-03-14T01:14:14.046Z,93987.28
2023-03-14T01:16:40.499Z,93988.72
2023-03-14T01:19:07.048Z,93980.69
2023-03-14T01:21:34.530Z,93965.78
2023-03-14T01:24:01.399Z,93949.69
2023-03-14T01:26:28.900Z,93969.81
2023-03-14T01:28:55.553Z,93960.97
2023-03-14T01:31:22.143Z,93981.50
2023-03-14T01:33:48.527Z,93986.31
2023-03-14T01:36:15.190Z,94029.44
2023-03-14T01:38:41.798Z,94035.09
2023-03-14T01:41:09.225Z,94012.53
2023-03-14T01:43:35.839Z,94050.41
2023-03-14T01:46:05.346Z,94078.22
2023-03-14T01:48:37.859Z,94096.16
2023-03-14T01:51:04.646Z,94122.56
2023-03-14T01:53:30.993Z,94148.75
2023-03-14T01:55:57.591Z,94168.50
2023-03-14T01:58:24.245Z,94195.94
2023-03-14T02:00:50.818Z,94220.09
2023-03-14T02:03:17.913Z,94239.88
2023-03-14T02:05:44.658Z,94263.22
2023-03-14T02:08:12.388Z,94318.06
2023-03-14T02:10:44.847Z,94342.06
2023-03-14T02:13:11.259Z,94365.22
2023-03-14T02:15:37.869Z,94399.06
2023-03-14T02:18:04.311Z,94392.00
2023-03-14T02:20:49.199Z,94415.19
2023-03-14T02:23:16.810Z,94452.09
2023-03-14T02:26:15.030Z,94477.28
2023-03-14T02:28:41.381Z,94497.41
2023-03-14T02:31:09.503Z,94511.13
2023-03-14T02:33:36.965Z,94518.78
2023-03-14T02:36:05.642Z,94528.41
2023-03-14T02:38:43.477Z,94553.81
2023-03-14T02:41:09.842Z,94570.72
2023-03-14T02:43:36.190Z,94588.88
2023-03-14T02:46:02.681Z,94581.78
2023-03-14T02:48:31.152Z,94575.53
2023-03-14T02:50:59.157Z,94580.41
2023-03-14T02:53:30.334Z,94590.03
2023-03-14T02:55:56.940Z,94578.31
2023-03-14T02:58:23.290Z,94579.91
2023-03-14T03:00:50.050Z,94591.22
2023-03-14T03:03:16.816Z,94597.66
2023-03-14T03:05:46.152Z,94576.66
2023-03-14T03:08:12.508Z,94581.91
2023-03-14T03:10:38.852Z,94577.03
2023-03-14T03:13:05.458Z,94578.22
2023-03-14T03:15:31.829Z,94573.75
2023-03-14T03:17:58.158Z,94563.28
2023-03-14T03:20:24.774Z,94552.41
2023-03-14T03:22:51.183Z,94546.09
2023-03-14T03:25:17.880Z,94534.03
2023-03-14T03:27:44.228Z,94526.53
2023-03-14T03:30:11.031Z,94537.66
2023-03-14T03:32:37.628Z,94541.00
2023-03-14T03:35:04.950Z,94545.69
2023-03-14T03:37:32.401Z,94563.19
2023-03-14T03:39:58.764Z,94551.94
2023-03-14T03:42:25.088Z,94545.88
2023-03-14T03:44:51.621Z,94548.72
2023-03-14T03:47:17.956Z,94563.81
2023-03-14T03:49:44.487Z,94565.19
2023-03-14T03:52:10.849Z,94561.75
2023-03-14T03:54:37.461Z,94562.72
2023-03-14T03:57:03.912Z,94544.16
2023-03-14T03:59:30.464Z,94530.84
2023-03-14T04:01:56.812Z,94509.03
2023-03-14T04:04:23.552Z,94481.25
2023-03-14T04:06:50.092Z,94482.88
2023-03-14T04:09:16.718Z,94495.81
2023-03-14T04:11:43.152Z,94512.34
2023-03-14T04:14:09.533Z,94523.59
2023-03-14T04:16:36.113Z,94545.41
2023-03-14T04:19:03.122Z,94556.25
2023-03-14T04:21:29.496Z,94550.97
2023-03-14T04:23:56.024Z,94548.97
2023-03-14T04:26:22.382Z,94555.00
2023-03-14T04:28:49.024Z,94555.19
2023-03-14T04:31:20.876Z,94564.22
2023-03-14T04:33:47.681Z,94547.28
2023-03-14T04:36:14.291Z,94551.34
2023-03-14T04:38:41.079Z,94548.16
2023-03-14T04:41:07.534Z,94561.47
2023-03-14T04:43:34.027Z,94561.91
2023-03-14T04:46:00.433Z,94581.88
2023-03-14T04:48:27.054Z,94543.03
2023-03-14T04:50:54.192Z,94503.53
2023-03-14T04:53:20.649Z,94483.34
2023-03-14T04:55:51.203Z,94477.31
2023-03-14T04:58:17.558Z,94461.63
2023-03-14T05:00:43.883Z,94431.78
2023-03-14T05:03:10.477Z,94398.72
2023-03-14T05:05:36.876Z,94383.81
2023-03-14T05:08:03.714Z,94359.22
2023-03-14T05:10:30.125Z,94345.09
2023-03-14T05:12:56.680Z,94322.53
2023-03-14T05:15:23.096Z,94302.41
2023-03-14T05:17:50.293Z,94279.00
2023-03-14T05:20:17.407Z,94251.63
2023-03-14T05:22:43.754Z,94239.16
2023-03-14T05:25:10.174Z,94262.47
2023-03-14T05:27:36.690Z,94289.81
2023-03-14T05:30:04.654Z,94302.28
2023-03-14T05:32:31.047Z,94313.53
2023-03-14T05:34:59.813Z,94336.00
2023-03-14T05:37:26.880Z,94373.03
2023-03-14T05:39:53.255Z,94373.38
2023-03-14T05:42:19.660Z,94396.69
2023-03-14T05:44:46.026Z,94417.22
2023-03-14T05:47:12.579Z,94465.28
2023-03-14T05:49:38.951Z,94463.44
2023-03-14T05:52:05.622Z,94474.13
2023-03-14T05:54:33.150Z,94477.09
2023-03-14T05:56:59.518Z,94472.22
2023-03-14T05:59:25.914Z,94474.25
2023-03-14T06:01:52.520Z,94461.53
2023-03-14T06:04:18.888Z,94450.84
2023-03-14T06:06:45.460Z,94440.75
2023-03-14T06:09:11.814Z,94427.91
2023-03-14T06:11:38.386Z,94418.88
2023-03-14T06:14:04.813Z,94418.66
2023-03-14T06:16:33.053Z,94415.88
2023-03-14T06:18:59.672Z,94419.13
2023-03-14T06:21:26.255Z,94414.84
2023-03-14T06:23:52.791Z,94419.13
2023-03-14T06:26:19.227Z,94418.13
2023-03-14T06:28:45.897Z,94428.38
2023-03-14T06:31:12.338Z,94427.56
2023-03-14T06:33:38.937Z,94427.56
2023-03-14T06:36:05.670Z,94417.94
2023-03-14T06:38:32.226Z,94425.94
2023-03-14T06:41:06.930Z,94435.41
2023-03-14T06:43:33.558Z,94446.28
2023-03-14T06:45:59.937Z,94458.16
2023-03-14T06:48:26.488Z,94459.81
2023-03-14T06:50:52.837Z,94470.88
2023-03-14T06:53:19.370Z,94494.47
2023-03-14T06:55:46.654Z,94513.06
2023-03-14T06:58:13.189Z,94526.81
2023-03-14T07:00:39.598Z,94547.81
2023-03-14T07:03:05.941Z,94576.09
2023-03-14T07:05:32.504Z,94616.59
2023-03-14T07:07:58.855Z,94637.75
2023-03-14T07:10:25.601Z,94658.69
2023-03-14T07:12:53.598Z,94678.09
2023-03-14T07:15:20.081Z,94686.34
2023-03-14T07:17:48.843Z,94683.75
2023-03-14T07:20:15.459Z,94694.22
2023-03-14T07:22:41.856Z,94711.34
2023-03-14T07:25:10.465Z,94704.94
2023-03-14T07:27:36.824Z,94717.25
2023-03-14T07:30:03.598Z,94712.53
2023-03-14T07:32:29.979Z,94719.41
2023-03-14T07:34:56.358Z,94685.97
2023-03-14T07:37:22.782Z,94699.06
2023-03-14T07:39:49.130Z,94703.13
2023-03-14T07:42:15.696Z,94683.25
2023-03-14T07:44:42.057Z,94686.09
2023-03-14T07:47:08.475Z,94706.69
2023-03-14T07:49:34.852Z,94688.78
2023-03-14T07:52:01.405Z,94703.44
2023-03-14T07:54:27.751Z,94710.28
2023-03-14T07:56:54.330Z,94670.88
2023-03-14T07:59:20.837Z,94655.84
2023-03-14T08:01:47.245Z,94652.88
2023-03-14T08:04:13.670Z,94675.66
2023-03-14T08:06:40.282Z,94663.00
2023-03-14T08:09:06.635Z,94659.75
2023-03-14T08:11:33.167Z,94651.28
2023-03-14T08:13:59.547Z,94646.03
2023-03-14T08:16:26.054Z,94616.25
2023-03-14T08:18:52.637Z,94610.06
2023-03-14T08:21:19.025Z,94619.56
2023-03-14T08:23:45.598Z,94629.25
2023-03-14T08:26:12.004Z,94628.47
2023-03-14T08:28:38.586Z,94629.72
2023-03-14T08:31:05.292Z,94618.06
2023-03-14T08:33:31.944Z,94656.00
2023-03-14T08:35:59.398Z,94647.53
2023-03-14T08:38:25.814Z,94653.22
2023-03-14T08:41:01.962Z,94669.56
2023-03-14T08:43:28.808Z,94689.94
2023-03-14T08:45:57.933Z,94701.69
2023-03-14T08:48:24.408Z,94709.16
2023-03-14T08:50:50.842Z,94717.84
2023-03-14T08:53:17.183Z,94736.38
2023-03-14T08:55:46.620Z,94725.53
2023-03-14T08:58:13.388Z,94732.38
2023-03-14T09:00:39.948Z,94752.34
2023-03-14T09:03:06.666Z,94737.63
2023-03-14T09:05:36.185Z,94717.03
2023-03-14T09:08:02.569Z,94584.44
2023-03-14T09:10:29.155Z,94568.50
2023-03-14T09:12:55.584Z,94563.25
2023-03-14T09:15:21.957Z,94551.53
2023-03-14T09:17:48.346Z,94530.53
2023-03-14T09:20:15.244Z,94569.81
2023-03-14T09:22:41.665Z,94557.69
2023-03-14T09:25:08.537Z,94565.75
2023-03-14T09:27:34.940Z,94495.97
2023-03-14T09:30:01.336Z,94508.47
2023-03-14T09:32:27.715Z,94452.06
2023-03-14T09:34:54.104Z,94360.38
2023-03-14T09:37:21.867Z,94318.03
2023-03-14T09:39:48.310Z,94371.25
2023-03-14T09:42:16.665Z,94393.84
2023-03-14T09:45:06.926Z,94442.06
2023-03-14T09:47:34.037Z,94469.91
2023-03-14T09:50:02.423Z,94435.44
2023-03-14T09:52:38.144Z,94430.19
2023-03-14T09:55:23.226Z,94469.09
2023-03-14T09:57:50.776Z,94562.94
2023-03-14T10:00:19.505Z,94622.69
2023-03-14T10:02:53.618Z,94665.53
2023-03-14T10:05:21.832Z,94716.38
2023-03-14T10:07:48.166Z,94733.75
2023-03-14T10:10:15.847Z,94751.19
2023-03-14T10:12:42.969Z,94757.72
2023-03-14T10:15:12.223Z,94730.75
2023-03-14T10:17:43.518Z,94743.31
2023-03-14T10:20:34.596Z,94787.41
2023-03-14T10:23:03.298Z,94829.03
2023-03-14T10:25:34.505Z,94871.03
2023-03-14T10:28:01.201Z,94872.22
2023-03-14T10:30:35.794Z,94875.69
2023-03-14T10:33:11.865Z,94885.09
2023-03-14T10:35:38.301Z,94854.16
2023-03-14T10:38:04.796Z,94842.22
2023-03-14T10:40:32.617Z,94774.84
2023-03-14T10:42:59.796Z,94756.44
2023-03-14T10:45:26.242Z,94704.13
2023-03-14T10:47:52.747Z,94661.06
2023-03-14T10:50:30.091Z,94561.34
2023-03-14T10:53:02.431Z,94433.47
2023-03-14T10:55:29.619Z,94330.59
2023-03-14T10:57:56.068Z,94301.16
2023-03-14T11:00:23.402Z,94337.84
2023-03-14T11:03:05.122Z,94403.19
2023-03-14T11:05:56.437Z,94492.41
2023-03-14T11:08:51.214Z,94617.97
2023-03-14T11:11:23.946Z,94660.75
2023-03-14T11:14:14.392Z,94657.91
2023-03-14T11:16:46.867Z,94644.38
2023-03-14T11:19:35.533Z,94592.53
2023-03-14T11:22:14.965Z,94582.22
2023-03-14T11:24:57.848Z,94538.19
2023-03-14T11:27:44.625Z,94482.50
2023-03-14T11:30:16.992Z,94468.78
2023-03-14T11:32:46.197Z,94527.06
2023-03-14T11:35:34.831Z,94539.16
2023-03-14T11:38:10.425Z,94520.81
2023-03-14T11:40:36.977Z,94593.69
2023-03-14T11:43:09.476Z,94621.72
2023-03-14T11:45:40.976Z,94619.09
2023-03-14T11:48:25.751Z,94629.03
2023-03-14T11:50:53.614Z,94620.56
2023-03-14T11:53:49.647Z,94582.25
2023-03-14T11:56:24.961Z,94576.59
2023-03-14T11:58:56.599Z,94584.47
2023-03-14T12:01:23.322Z,94606.69
2023-03-14T12:04:17.695Z,94627.09
2023-03-14T12:06:51.054Z,94644.63
2023-03-14T12:09:18.991Z,94643.03
2023-03-14T12:11:49.950Z,94637.19
2023-03-14T12:14:30.478Z,94599.03
2023-03-14T12:17:18.104Z,94623.25
2023-03-14T12:19:44.725Z,94728.25
2023-03-14T12:22:35.403Z,94665.13
2023-03-14T12:25:05.442Z,94333.78
2023-03-14T12:27:45.378Z,94088.88
2023-03-14T12:30:34.643Z,93882.50
2023-03-14T12:33:10.395Z,93658.06
2023-03-14T12:35:41.484Z,93394.38
2023-03-14T12:38:17.155Z,93114.78
2023-03-14T12:41:05.754Z,92862.59
2023-03-14T12:43:34.193Z,92781.28
2023-03-14T12:46:36.014Z,92772.16
2023-03-14T12:49:02.379Z,92874.66
2023-03-14T12:51:46.949Z,92954.25
2023-03-14T12:54:51.524Z,92980.31
2023-03-14T12:57:41.010Z,92822.06
2023-03-14T13:00:24.270Z,91715.88
2023-03-14T13:02:51.144Z,90442.94
2023-03-14T13:05:25.548Z,90088.25
2023-03-14T13:07:55.804Z,90027.22
2023-03-14T13:10:26.708Z,90014.28
2023-03-14T13:13:14.620Z,90080.22
2023-03-14T13:15:45.784Z,90160.38
2023-03-14T13:18:14.265Z,90403.97
2023-03-14T13:20:51.353Z,90720.81
2023-03-14T13:23:25.172Z,91043.38
2023-03-14T13:25:51.746Z,91323.97
2023-03-14T13:28:18.211Z,91631.63
2023-03-14T13:30:45.963Z,91910.13
2023-03-14T13:33:30.689Z,92195.09
2023-03-14T13:36:01.260Z,92391.44
2023-03-14T13:38:29.070Z,92542.03
2023-03-14T13:41:02.492Z,92694.47
2023-03-14T13:43:35.550Z,92900.78
2023-03-14T13:46:02.955Z,93020.47
2023-03-14T13:48:30.251Z,93141.34
2023-03-14T13:50:59.960Z,93282.88
2023-03-14T13:53:26.431Z,93434.44
2023-03-14T13:55:53.237Z,93585.19
2023-03-14T13:58:30.020Z,93650.72
2023-03-14T14:01:12.485Z,93692.75
2023-03-14T14:03:40.197Z,93796.38
2023-03-14T14:06:09.856Z,93911.97
2023-03-14T14:08:38.018Z,93964.78
2023-03-14T14:11:06.111Z,94022.19
2023-03-14T14:13:33.502Z,94084.41
2023-03-14T14:16:00.359Z,94153.50
2023-03-14T14:18:27.369Z,94163.50
2023-03-14T14:20:53.741Z,94259.47
2023-03-14T14:23:26.177Z,94315.41
2023-03-14T14:25:53.629Z,94340.88
2023-03-14T14:28:31.491Z,94406.03
2023-03-14T14:31:01.023Z,94481.25
2023-03-14T14:33:27.427Z,94524.72
2023-03-14T14:36:00.424Z,94677.63
2023-03-14T14:38:27.068Z,94722.44
2023-03-14T14:41:00.850Z,94743.13
2023-03-14T14:43:28.456Z,94728.28
2023-03-14T14:45:55.537Z,94693.13
2023-03-14T14:48:23.881Z,94653.09
2023-03-14T14:51:00.693Z,94637.84
2023-03-14T14:53:45.442Z,94636.53
2023-03-14T14:56:17.902Z,94621.91
2023-03-14T14:58:47.733Z,94647.06
2023-03-14T15:01:21.255Z,94642.16
2023-03-14T15:03:49.182Z,94605.09
2023-03-14T15:06:16.424Z,94562.03
2023-03-14T15:08:47.515Z,94647.13
2023-03-14T15:11:18.260Z,94675.09
2023-03-14T15:13:44.715Z,94732.19
2023-03-14T15:16:11.873Z,94802.22
2023-03-14T15:18:38.274Z,94953.19
2023-03-14T15:21:04.786Z,95022.81
2023-03-14T15:23:31.174Z,95120.53
2023-03-14T15:25:57.558Z,95176.63
2023-03-14T15:28:28.411Z,95235.16
2023-03-14T15:30:56.509Z,95231.88
2023-03-14T15:33:23.024Z,95301.13
2023-03-14T15:35:49.562Z,95336.81
2023-03-14T15:38:17.838Z,95465.78
2023-03-14T15:40:44.251Z,95526.31
2023-03-14T15:43:10.830Z,95675.31
2023-03-14T15:45:37.315Z,95838.38
2023-03-14T15:48:04.044Z,95906.75
2023-03-14T15:50:30.559Z,95949.47
2023-03-14T15:52:57.116Z,95970.81
2023-03-14T15:55:23.928Z,96080.22
2023-03-14T15:57:50.884Z,96135.41
2023-03-14T16:00:19.461Z,96210.47
2023-03-14T16:02:46.026Z,96409.38
2023-03-14T16:05:12.741Z,96458.97
2023-03-14T16:07:40.086Z,96463.50
2023-03-14T16:10:07.677Z,96635.56
2023-03-14T16:12:34.255Z,96765.50
2023-03-14T16:15:00.716Z,96732.88
2023-03-14T16:17:27.393Z,96723.09
2023-03-14T16:19:53.739Z,96730.78
2023-03-14T16:22:20.185Z,96695.03
2023-03-14T16:24:46.580Z,96738.59
2023-03-14T16:27:13.141Z,96718.75
2023-03-14T16:29:39.539Z,96750.94
2023-03-14T16:32:06.406Z,96873.94
2023-03-14T16:34:32.914Z,96875.81
2023-03-14T16:36:59.309Z,96838.22
2023-03-14T16:39:28.806Z,96783.19
2023-03-14T16:41:58.872Z,96859.06
2023-03-14T16:44:25.785Z,96851.47
2023-03-14T16:46:52.166Z,96857.59
2023-03-14T16:49:18.524Z,96817.94
2023-03-14T16:51:44.933Z,96830.00
2023-03-14T16:54:11.344Z,96843.91
2023-03-14T16:56:37.780Z,96849.09
2023-03-14T16:59:04.225Z,96843.91
2023-03-14T17:01:30.672Z,96879.69
2023-03-14T17:03:57.168Z,96902.31
2023-03-14T17:06:25.570Z,96911.03
2023-03-14T17:08:52.463Z,96975.56
2023-03-14T17:11:18.971Z,97091.59
2023-03-14T17:13:45.386Z,97081.56
2023-03-14T17:16:11.951Z,97225.19
2023-03-14T17:18:38.418Z,97250.56
2023-03-14T17:21:05.322Z,97398.44
2023-03-14T17:23:32.104Z,97335.34
2023-03-14T17:25:58.486Z,97350.25
2023-03-14T17:28:25.789Z,97338.38
2023-03-14T17:31:01.820Z,97311.59
2023-03-14T17:33:28.262Z,97303.91
2023-03-14T17:35:54.657Z,97343.25
2023-03-14T17:38:21.050Z,97401.97
2023-03-14T17:40:48.626Z,97446.31
2023-03-14T17:43:15.404Z,97469.72
2023-03-14T17:45:43.422Z,97480.19
2023-03-14T17:48:10.288Z,97456.69
2023-03-14T17:50:36.989Z,97493.16
2023-03-14T17:53:03.644Z,97476.84
2023-03-14T17:55:31.348Z,97457.16
2023-03-14T17:57:57.698Z,97444.28
2023-03-14T18:00:24.160Z,97416.59
2023-03-14T18:02:51.099Z,97461.03
2023-03-14T18:05:17.963Z,97482.06
2023-03-14T18:07:44.320Z,97471.03
2023-03-14T18:10:11.998Z,97447.69
2023-03-14T18:12:38.414Z,97465.19
2023-03-14T18:15:05.202Z,97487.72
2023-03-14T18:17:31.866Z,97442.06
2023-03-14T18:19:58.281Z,97406.78
2023-03-14T18:22:24.838Z,97401.69
2023-03-14T18:24:51.343Z,97415.63
2023-03-14T18:27:18.021Z,97471.16
2023-03-14T18:29:44.522Z,97469.47
2023-03-14T18:32:11.021Z,97474.84
2023-03-14T18:34:37.431Z,97493.03
2023-03-14T18:37:03.849Z,97425.50
2023-03-14T18:39:30.540Z,97427.34
2023-03-14T18:41:56.933Z,97442.03
2023-03-14T18:44:23.296Z,97473.00
2023-03-14T18:46:49.864Z,97471.31
2023-03-14T18:49:16.242Z,97474.84
2023-03-14T18:51:43.376Z,97496.56
2023-03-14T18:54:10.888Z,97473.06
2023-03-14T18:56:38.314Z,97519.09
2023-03-14T18:59:04.715Z,97519.97
2023-03-14T19:01:31.627Z,97536.44
2023-03-14T19:04:01.683Z,97542.50
2023-03-14T19:06:28.533Z,97555.69
2023-03-14T19:08:54.937Z,97513.41
2023-03-14T19:11:21.307Z,97504.88
2023-03-14T19:13:47.676Z,97529.41
2023-03-14T19:16:14.787Z,97527.72
2023-03-14T19:18:41.344Z,97526.22
2023-03-14T19:21:12.378Z,97515.69
2023-03-14T19:23:39.779Z,97514.63
2023-03-14T19:26:06.411Z,97517.16
2023-03-14T19:28:32.884Z,97530.31
2023-03-14T19:30:59.589Z,97520.56
2023-03-14T19:33:26.839Z,97514.78
2023-03-14T19:35:53.291Z,97531.91
2023-03-14T19:38:19.796Z,97535.22
2023-03-14T19:40:46.340Z,97541.22
2023-03-14T19:43:13.110Z,97537.03
2023-03-14T19:45:39.576Z,97495.38
2023-03-14T19:48:06.522Z,97514.50
2023-03-14T19:50:33.838Z,97525.59
2023-03-14T19:53:03.450Z,97540.22
2023-03-14T19:55:34.572Z,97554.09
2023-03-14T19:58:01.244Z,97558.72
2023-03-14T20:00:27.610Z,97531.09
2023-03-14T20:02:54.174Z,97553.63
2023-03-14T20:05:21.072Z,97540.66
2023-03-14T20:07:47.677Z,97547.69
2023-03-14T20:10:18.522Z,97572.97
2023-03-14T20:12:45.417Z,97572.97
2023-03-14T20:15:14.674Z,97562.75
2023-03-14T20:17:41.158Z,97570.53
2023-03-14T20:20:10.863Z,97575.56
2023-03-14T20:22:38.296Z,97580.25
2023-03-14T20:25:09.023Z,97573.03
2023-03-14T20:27:35.720Z,97576.38
2023-03-14T20:30:03.017Z,97589.41
2023-03-14T20:32:29.861Z,97601.66
2023-03-14T20:34:56.467Z,97626.88
2023-03-14T20:37:22.892Z,97635.69
2023-03-14T20:39:50.186Z,97643.75
2023-03-14T20:42:17.819Z,97644.56
2023-03-14T20:44:44.872Z,97646.53
2023-03-14T20:47:11.795Z,97633.53
2023-03-14T20:49:38.199Z,97633.66
2023-03-14T20:52:05.464Z,97627.09
2023-03-14T20:54:32.448Z,97620.25
2023-03-14T20:56:58.838Z,97625.56
2023-03-14T20:59:25.271Z,97627.41
2023-03-14T21:01:51.713Z,97632.72
2023-03-14T21:04:18.300Z,97624.66
2023-03-14T21:06:45.867Z,97625.69
2023-03-14T21:09:12.266Z,97632.84
2023-03-14T21:11:41.117Z,97614.59
2023-03-14T21:14:07.481Z,97588.22
2023-03-14T21:16:33.951Z,97591.59
2023-03-14T21:19:00.969Z,97590.94
2023-03-14T21:21:27.320Z,97583.19
2023-03-14T21:23:54.245Z,97591.84
2023-03-14T21:26:21.461Z,97569.47
2023-03-14T21:28:47.806Z,97569.63
2023-03-14T21:31:14.286Z,97562.09
2023-03-14T21:33:40.840Z,97558.59
2023-03-14T21:36:08.028Z,97568.06
2023-03-14T21:38:34.442Z,97575.09
2023-03-14T21:41:01.394Z,97573.53
2023-03-14T21:43:27.833Z,97578.84
2023-03-14T21:45:54.256Z,97562.88
2023-03-14T21:48:22.369Z,97561.44
2023-03-14T21:50:48.819Z,97566.00
2023-03-14T21:53:15.407Z,97560.88
2023-03-14T21:55:45.404Z,97551.50
2023-03-14T21:58:14.275Z,97550.19
2023-03-14T22:00:41.945Z,97554.66
2023-03-14T22:03:13.343Z,97548.03
2023-03-14T22:05:46.272Z,97534.13
2023-03-14T22:08:13.560Z,97531.16
2023-03-14T22:10:47.239Z,97527.94
2023-03-14T22:13:14.018Z,97512.59
2023-03-14T22:15:41.383Z,97519.97
2023-03-14T22:18:07.827Z,97501.13
2023-03-14T22:20:34.305Z,97504.47
2023-03-14T22:23:00.689Z,97498.59
2023-03-14T22:25:27.155Z,97495.25
2023-03-14T22:27:53.728Z,97509.91
2023-03-14T22:30:20.214Z,97501.25
2023-03-14T22:32:46.696Z,97509.78
2023-03-14T22:35:13.120Z,97513.00
2023-03-14T22:37:41.448Z,97538.94
2023-03-14T22:40:08.660Z,97544.25
2023-03-14T22:42:35.045Z,97549.63
2023-03-14T22:45:01.640Z,97554.66
2023-03-14T22:47:27.990Z,97556.41
2023-03-14T22:49:54.352Z,97560.03
2023-03-14T22:52:20.762Z,97565.88
2023-03-14T22:54:47.122Z,97556.28
2023-03-14T22:57:13.462Z,97565.06
2023-03-14T22:59:40.029Z,97563.50
2023-03-14T23:02:06.433Z,97556.53
2023-03-14T23:04:32.810Z,97556.03
2023-03-14T23:06:59.402Z,97562.22
2023-03-14T23:09:25.736Z,97546.47
2023-03-14T23:11:52.092Z,97539.75
2023-03-14T23:14:18.878Z,97547.44
2023-03-14T23:16:47.268Z,97544.91
2023-03-14T23:19:13.673Z,97543.19
2023-03-14T23:21:40.294Z,97549.38
2023-03-14T23:24:07.061Z,97544.97
2023-03-14T23:26:35.228Z,97548.28
2023-03-14T23:29:02.034Z,97545.56
2023-03-14T23:31:28.401Z,97559.16
2023-03-14T23:33:54.749Z,97562.66
2023-03-14T23:36:22.298Z,97554.09
2023-03-14T23:38:48.713Z,97560.13
2023-03-14T23:41:15.218Z,97566.16
2023-03-14T23:43:43.421Z,97565.47
2023-03-14T23:46:10.201Z,97570.69
2023-03-14T23:48:36.952Z,97568.94
2023-03-14T23:51:04.823Z,97573.25
2023-03-14T23:53:31.322Z,97580.81
2023-03-14T23:55:58.005Z,97570.63
2023-03-14T23:58:24.636Z,97581.06
